sensor_id;sensor_type;location;lat;lon;timestamp;temperature;humidity
10702;DHT22;5402;50.004;8.246;2022-12-18T00:02:26;-6.80;99.90
10702;DHT22;5402;50.004;8.246;2022-12-18T00:04:52;-7.00;99.90
10702;DHT22;5402;50.004;8.246;2022-12-18T00:07:20;-7.10;99.90
10702;DHT22;5402;50.004;8.246;2022-12-18T00:09:46;-7.00;99.90
10702;DHT22;5402;50.004;8.246;2022-12-18T00:12:13;-7.00;99.90
10702;DHT22;5402;50.004;8.246;2022-12-18T00:14:40;-7.00;99.90
10702;DHT22;5402;50.004;8.246;2022-12-18T00:17:07;-7.00;99.90
10702;DHT22;5402;50.004;8.246;2022-12-18T00:19:35;-7.20;99.90
10702;DHT22;5402;50.004;8.246;2022-12-18T00:22:02;-7.10;99.90
10702;DHT22;5402;50.004;8.246;2022-12-18T00:24:29;-7.30;99.90
10702;DHT22;5402;50.004;8.246;2022-12-18T00:26:56;-7.30;99.90
10702;DHT22;5402;50.004;8.246;2022-12-18T00:29:23;-7.20;99.90
10702;DHT22;5402;50.004;8.246;2022-12-18T00:31:50;-6.80;99.90
10702;DHT22;5402;50.004;8.246;2022-12-18T00:34:17;-7.00;99.90
10702;DHT22;5402;50.004;8.246;2022-12-18T00:36:47;-7.10;99.90
10702;DHT22;5402;50.004;8.246;2022-12-18T00:39:14;-7.50;99.90
10702;DHT22;5402;50.004;8.246;2022-12-18T00:41:41;-7.50;99.90
10702;DHT22;5402;50.004;8.246;2022-12-18T00:44:25;-7.40;99.90
10702;DHT22;5402;50.004;8.246;2022-12-18T00:46:52;-7.30;99.90
10702;DHT22;5402;50.004;8.246;2022-12-18T00:49:22;-7.30;99.90
10702;DHT22;5402;50.004;8.246;2022-12-18T00:51:51;-7.50;99.90
10702;DHT22;5402;50.004;8.246;2022-12-18T00:54:17;-7.40;99.90
10702;DHT22;5402;50.004;8.246;2022-12-18T00:56:45;-7.60;99.90
10702;DHT22;5402;50.004;8.246;2022-12-18T00:59:11;-7.60;99.90
10702;DHT22;5402;50.004;8.246;2022-12-18T01:01:38;-7.50;99.90
10702;DHT22;5402;50.004;8.246;2022-12-18T01:04:06;-7.50;99.90
10702;DHT22;5402;50.004;8.246;2022-12-18T01:06:34;-7.40;99.90
10702;DHT22;5402;50.004;8.246;2022-12-18T01:09:03;-7.40;99.90
10702;DHT22;5402;50.004;8.246;2022-12-18T01:11:29;-7.50;99.90
10702;DHT22;5402;50.004;8.246;2022-12-18T01:14:06;-7.80;99.90
10702;DHT22;5402;50.004;8.246;2022-12-18T01:16:33;-7.60;99.90
10702;DHT22;5402;50.004;8.246;2022-12-18T01:19:02;-7.50;99.90
10702;DHT22;5402;50.004;8.246;2022-12-18T01:21:29;-7.40;99.90
10702;DHT22;5402;50.004;8.246;2022-12-18T01:23:57;-7.50;99.90
10702;DHT22;5402;50.004;8.246;2022-12-18T01:26:25;-7.60;99.90
10702;DHT22;5402;50.004;8.246;2022-12-18T01:28:55;-7.30;99.90
10702;DHT22;5402;50.004;8.246;2022-12-18T01:31:26;-7.70;99.90
10702;DHT22;5402;50.004;8.246;2022-12-18T01:33:53;-7.20;99.90
10702;DHT22;5402;50.004;8.246;2022-12-18T01:36:23;-7.70;99.90
10702;DHT22;5402;50.004;8.246;2022-12-18T01:38:52;-7.80;99.90
10702;DHT22;5402;50.004;8.246;2022-12-18T01:41:20;-7.80;99.90
10702;DHT22;5402;50.004;8.246;2022-12-18T01:43:52;-7.70;99.90
10702;DHT22;5402;50.004;8.246;2022-12-18T01:46:21;-7.60;99.90
10702;DHT22;5402;50.004;8.246;2022-12-18T01:48:52;-7.70;99.90
10702;DHT22;5402;50.004;8.246;2022-12-18T01:51:20;-7.70;99.90
10702;DHT22;5402;50.004;8.246;2022-12-18T01:53:47;-7.70;99.90
10702;DHT22;5402;50.004;8.246;2022-12-18T01:56:22;-7.70;99.90
10702;DHT22;5402;50.004;8.246;2022-12-18T01:58:54;-7.70;99.90
10702;DHT22;5402;50.004;8.246;2022-12-18T02:01:24;-7.80;99.90
10702;DHT22;5402;50.004;8.246;2022-12-18T02:03:52;-7.80;99.90
10702;DHT22;5402;50.004;8.246;2022-12-18T02:06:28;-7.80;99.90
10702;DHT22;5402;50.004;8.246;2022-12-18T02:09:05;-7.80;99.90
10702;DHT22;5402;50.004;8.246;2022-12-18T02:11:43;-7.80;99.90
10702;DHT22;5402;50.004;8.246;2022-12-18T02:14:23;-7.80;99.90
10702;DHT22;5402;50.004;8.246;2022-12-18T02:16:56;-7.80;99.90
10702;DHT22;5402;50.004;8.246;2022-12-18T02:19:43;-7.80;99.90
10702;DHT22;5402;50.004;8.246;2022-12-18T02:22:27;-7.80;99.90
10702;DHT22;5402;50.004;8.246;2022-12-18T02:25:06;-7.90;99.90
10702;DHT22;5402;50.004;8.246;2022-12-18T02:27:43;-7.80;99.90
10702;DHT22;5402;50.004;8.246;2022-12-18T02:30:11;-7.90;99.90
10702;DHT22;5402;50.004;8.246;2022-12-18T02:32:45;-7.90;99.90
10702;DHT22;5402;50.004;8.246;2022-12-18T02:35:16;-7.90;99.90
10702;DHT22;5402;50.004;8.246;2022-12-18T02:37:45;-7.90;99.90
10702;DHT22;5402;50.004;8.246;2022-12-18T02:40:19;-8.00;99.90
10702;DHT22;5402;50.004;8.246;2022-12-18T02:42:48;-8.30;99.90
10702;DHT22;5402;50.004;8.246;2022-12-18T02:45:15;-8.30;99.90
10702;DHT22;5402;50.004;8.246;2022-12-18T02:47:44;-7.80;99.90
10702;DHT22;5402;50.004;8.246;2022-12-18T02:50:18;-8.30;99.90
10702;DHT22;5402;50.004;8.246;2022-12-18T02:53:09;-8.20;99.90
10702;DHT22;5402;50.004;8.246;2022-12-18T02:55:58;-8.20;99.90
10702;DHT22;5402;50.004;8.246;2022-12-18T02:58:37;-8.30;99.90
10702;DHT22;5402;50.004;8.246;2022-12-18T03:01:13;-8.30;99.90
10702;DHT22;5402;50.004;8.246;2022-12-18T03:03:46;-8.20;99.90
10702;DHT22;5402;50.004;8.246;2022-12-18T03:06:18;-8.30;99.90
10702;DHT22;5402;50.004;8.246;2022-12-18T03:08:56;-8.30;99.90
10702;DHT22;5402;50.004;8.246;2022-12-18T03:11:34;-8.20;99.90
10702;DHT22;5402;50.004;8.246;2022-12-18T03:14:23;-8.10;99.90
10702;DHT22;5402;50.004;8.246;2022-12-18T03:16:54;-8.10;99.90
10702;DHT22;5402;50.004;8.246;2022-12-18T03:19:26;-8.10;99.90
10702;DHT22;5402;50.004;8.246;2022-12-18T03:21:55;-8.10;99.90
10702;DHT22;5402;50.004;8.246;2022-12-18T03:24:24;-8.10;99.90
10702;DHT22;5402;50.004;8.246;2022-12-18T03:27:02;-8.10;99.90
10702;DHT22;5402;50.004;8.246;2022-12-18T03:29:34;-8.10;99.90
10702;DHT22;5402;50.004;8.246;2022-12-18T03:32:05;-8.20;99.90
10702;DHT22;5402;50.004;8.246;2022-12-18T03:34:35;-8.20;99.90
10702;DHT22;5402;50.004;8.246;2022-12-18T03:37:04;-8.00;99.90
10702;DHT22;5402;50.004;8.246;2022-12-18T03:39:32;-8.10;99.90
10702;DHT22;5402;50.004;8.246;2022-12-18T03:42:04;-8.20;99.90
10702;DHT22;5402;50.004;8.246;2022-12-18T03:44:39;-8.30;99.90
10702;DHT22;5402;50.004;8.246;2022-12-18T03:47:12;-8.30;99.90
10702;DHT22;5402;50.004;8.246;2022-12-18T03:49:45;-8.30;99.90
10702;DHT22;5402;50.004;8.246;2022-12-18T03:52:19;-8.30;99.90
10702;DHT22;5402;50.004;8.246;2022-12-18T03:54:47;-8.30;99.90
10702;DHT22;5402;50.004;8.246;2022-12-18T03:57:17;-8.40;99.90
10702;DHT22;5402;50.004;8.246;2022-12-18T03:59:48;-8.40;99.90
10702;DHT22;5402;50.004;8.246;2022-12-18T04:02:20;-8.50;99.90
10702;DHT22;5402;50.004;8.246;2022-12-18T04:04:53;-8.50;99.90
10702;DHT22;5402;50.004;8.246;2022-12-18T04:07:23;-8.50;99.90
10702;DHT22;5402;50.004;8.246;2022-12-18T04:09:53;-8.50;99.90
10702;DHT22;5402;50.004;8.246;2022-12-18T04:12:21;-8.40;99.90
10702;DHT22;5402;50.004;8.246;2022-12-18T04:14:51;-8.40;99.90
10702;DHT22;5402;50.004;8.246;2022-12-18T04:17:18;-8.40;99.90
10702;DHT22;5402;50.004;8.246;2022-12-18T04:19:45;-8.40;99.90
10702;DHT22;5402;50.004;8.246;2022-12-18T04:22:12;-8.40;99.90
10702;DHT22;5402;50.004;8.246;2022-12-18T04:24:39;-8.40;99.90
10702;DHT22;5402;50.004;8.246;2022-12-18T04:27:06;-8.40;99.90
10702;DHT22;5402;50.004;8.246;2022-12-18T04:29:33;-8.40;99.90
10702;DHT22;5402;50.004;8.246;2022-12-18T04:32:02;-8.30;99.90
10702;DHT22;5402;50.004;8.246;2022-12-18T04:34:29;-8.30;99.90
10702;DHT22;5402;50.004;8.246;2022-12-18T04:36:56;-8.40;99.90
10702;DHT22;5402;50.004;8.246;2022-12-18T04:39:25;-8.40;99.90
10702;DHT22;5402;50.004;8.246;2022-12-18T04:41:52;-8.40;99.90
10702;DHT22;5402;50.004;8.246;2022-12-18T04:44:18;-8.50;99.90
10702;DHT22;5402;50.004;8.246;2022-12-18T04:46:45;-8.50;99.90
10702;DHT22;5402;50.004;8.246;2022-12-18T04:49:14;-8.60;99.90
10702;DHT22;5402;50.004;8.246;2022-12-18T04:51:44;-8.60;99.90
10702;DHT22;5402;50.004;8.246;2022-12-18T04:54:11;-8.60;99.90
10702;DHT22;5402;50.004;8.246;2022-12-18T04:56:38;-8.60;99.90
10702;DHT22;5402;50.004;8.246;2022-12-18T04:59:05;-8.60;99.90
10702;DHT22;5402;50.004;8.246;2022-12-18T05:01:34;-8.60;99.90
10702;DHT22;5402;50.004;8.246;2022-12-18T05:04:04;-8.70;99.90
10702;DHT22;5402;50.004;8.246;2022-12-18T05:06:33;-8.60;99.90
10702;DHT22;5402;50.004;8.246;2022-12-18T05:08:59;-8.00;99.90
10702;DHT22;5402;50.004;8.246;2022-12-18T05:11:29;-8.60;99.90
10702;DHT22;5402;50.004;8.246;2022-12-18T05:13:58;-8.60;99.90
10702;DHT22;5402;50.004;8.246;2022-12-18T05:16:25;-8.70;99.90
10702;DHT22;5402;50.004;8.246;2022-12-18T05:18:52;-8.50;99.90
10702;DHT22;5402;50.004;8.246;2022-12-18T05:21:19;-8.70;99.90
10702;DHT22;5402;50.004;8.246;2022-12-18T05:23:47;-8.60;99.90
10702;DHT22;5402;50.004;8.246;2022-12-18T05:26:18;-8.50;99.90
10702;DHT22;5402;50.004;8.246;2022-12-18T05:28:45;-8.60;99.90
10702;DHT22;5402;50.004;8.246;2022-12-18T05:31:12;-8.60;99.90
10702;DHT22;5402;50.004;8.246;2022-12-18T05:33:39;-8.60;99.90
10702;DHT22;5402;50.004;8.246;2022-12-18T05:36:08;-8.60;99.90
10702;DHT22;5402;50.004;8.246;2022-12-18T05:38:37;-8.60;99.90
10702;DHT22;5402;50.004;8.246;2022-12-18T05:41:05;-8.70;99.90
10702;DHT22;5402;50.004;8.246;2022-12-18T05:43:34;-8.60;99.90
10702;DHT22;5402;50.004;8.246;2022-12-18T05:46:04;-8.70;99.90
10702;DHT22;5402;50.004;8.246;2022-12-18T05:48:31;-8.70;99.90
10702;DHT22;5402;50.004;8.246;2022-12-18T05:51:03;-8.70;99.90
10702;DHT22;5402;50.004;8.246;2022-12-18T05:53:31;-7.80;99.90
10702;DHT22;5402;50.004;8.246;2022-12-18T05:56:00;-8.60;99.90
10702;DHT22;5402;50.004;8.246;2022-12-18T05:58:29;-8.70;99.90
10702;DHT22;5402;50.004;8.246;2022-12-18T06:00:58;-8.70;99.90
10702;DHT22;5402;50.004;8.246;2022-12-18T06:03:39;-8.70;99.90
10702;DHT22;5402;50.004;8.246;2022-12-18T06:06:28;-8.70;99.90
10702;DHT22;5402;50.004;8.246;2022-12-18T06:08:57;-8.00;99.90
10702;DHT22;5402;50.004;8.246;2022-12-18T06:11:26;-8.70;99.90
10702;DHT22;5402;50.004;8.246;2022-12-18T06:13:55;-8.40;99.90
10702;DHT22;5402;50.004;8.246;2022-12-18T06:16:27;-8.60;99.90
10702;DHT22;5402;50.004;8.246;2022-12-18T06:19:00;-8.60;99.90
10702;DHT22;5402;50.004;8.246;2022-12-18T06:21:29;-8.60;99.90
10702;DHT22;5402;50.004;8.246;2022-12-18T06:23:58;-8.70;99.90
10702;DHT22;5402;50.004;8.246;2022-12-18T06:26:25;-8.60;99.90
10702;DHT22;5402;50.004;8.246;2022-12-18T06:28:51;-8.70;99.90
10702;DHT22;5402;50.004;8.246;2022-12-18T06:31:25;-8.60;99.90
10702;DHT22;5402;50.004;8.246;2022-12-18T06:33:55;-8.60;99.90
10702;DHT22;5402;50.004;8.246;2022-12-18T06:36:22;-8.70;99.90
10702;DHT22;5402;50.004;8.246;2022-12-18T06:38:52;-8.60;99.90
10702;DHT22;5402;50.004;8.246;2022-12-18T06:41:21;-8.60;99.90
10702;DHT22;5402;50.004;8.246;2022-12-18T06:43:48;-8.70;99.90
10702;DHT22;5402;50.004;8.246;2022-12-18T06:46:15;-8.70;99.90
10702;DHT22;5402;50.004;8.246;2022-12-18T06:48:46;-8.60;99.90
10702;DHT22;5402;50.004;8.246;2022-12-18T06:51:16;-8.60;99.90
10702;DHT22;5402;50.004;8.246;2022-12-18T06:53:43;-8.70;99.90
10702;DHT22;5402;50.004;8.246;2022-12-18T06:56:10;-8.80;99.90
10702;DHT22;5402;50.004;8.246;2022-12-18T06:58:37;-8.70;99.90
10702;DHT22;5402;50.004;8.246;2022-12-18T07:01:05;-8.70;99.90
10702;DHT22;5402;50.004;8.246;2022-12-18T07:03:36;-8.70;99.90
10702;DHT22;5402;50.004;8.246;2022-12-18T07:06:06;-8.80;99.90
10702;DHT22;5402;50.004;8.246;2022-12-18T07:08:33;-8.70;99.90
10702;DHT22;5402;50.004;8.246;2022-12-18T07:11:03;-8.70;99.90
10702;DHT22;5402;50.004;8.246;2022-12-18T07:13:30;-8.60;99.90
10702;DHT22;5402;50.004;8.246;2022-12-18T07:16:04;-8.10;99.90
10702;DHT22;5402;50.004;8.246;2022-12-18T07:18:31;-8.70;99.90
10702;DHT22;5402;50.004;8.246;2022-12-18T07:20:59;-8.60;99.90
10702;DHT22;5402;50.004;8.246;2022-12-18T07:23:30;-8.50;99.90
10702;DHT22;5402;50.004;8.246;2022-12-18T07:26:01;-8.50;99.90
10702;DHT22;5402;50.004;8.246;2022-12-18T07:28:29;-8.40;99.90
10702;DHT22;5402;50.004;8.246;2022-12-18T07:30:56;-8.30;99.90
10702;DHT22;5402;50.004;8.246;2022-12-18T07:33:23;-8.30;99.90
10702;DHT22;5402;50.004;8.246;2022-12-18T07:35:50;-7.80;99.90
10702;DHT22;5402;50.004;8.246;2022-12-18T07:38:17;-8.10;99.90
10702;DHT22;5402;50.004;8.246;2022-12-18T07:40:45;-8.00;99.90
10702;DHT22;5402;50.004;8.246;2022-12-18T07:43:12;-8.00;99.90
10702;DHT22;5402;50.004;8.246;2022-12-18T07:45:39;-7.90;99.90
10702;DHT22;5402;50.004;8.246;2022-12-18T07:48:05;-7.90;99.90
10702;DHT22;5402;50.004;8.246;2022-12-18T07:50:32;-7.90;99.90
10702;DHT22;5402;50.004;8.246;2022-12-18T07:53:21;-7.90;99.90
10702;DHT22;5402;50.004;8.246;2022-12-18T07:55:55;-7.80;99.90
10702;DHT22;5402;50.004;8.246;2022-12-18T07:58:21;-7.70;99.90
10702;DHT22;5402;50.004;8.246;2022-12-18T08:00:48;-7.70;99.90
10702;DHT22;5402;50.004;8.246;2022-12-18T08:03:15;-7.60;99.90
10702;DHT22;5402;50.004;8.246;2022-12-18T08:05:42;-7.40;99.90
10702;DHT22;5402;50.004;8.246;2022-12-18T08:08:09;-7.20;99.90
10702;DHT22;5402;50.004;8.246;2022-12-18T08:10:35;-7.20;99.90
10702;DHT22;5402;50.004;8.246;2022-12-18T08:13:04;-7.00;99.90
10702;DHT22;5402;50.004;8.246;2022-12-18T08:15:31;-6.90;99.90
10702;DHT22;5402;50.004;8.246;2022-12-18T08:18:01;-6.70;99.90
10702;DHT22;5402;50.004;8.246;2022-12-18T08:20:30;-6.80;99.90
10702;DHT22;5402;50.004;8.246;2022-12-18T08:22:56;-6.60;99.90
10702;DHT22;5402;50.004;8.246;2022-12-18T08:25:26;-6.50;99.90
10702;DHT22;5402;50.004;8.246;2022-12-18T08:27:53;-6.20;99.90
10702;DHT22;5402;50.004;8.246;2022-12-18T08:30:23;-6.30;99.90
10702;DHT22;5402;50.004;8.246;2022-12-18T08:32:51;-6.10;99.90
10702;DHT22;5402;50.004;8.246;2022-12-18T08:35:18;-6.00;99.90
10702;DHT22;5402;50.004;8.246;2022-12-18T08:37:45;-5.90;99.90
10702;DHT22;5402;50.004;8.246;2022-12-18T08:40:12;-5.60;99.90
10702;DHT22;5402;50.004;8.246;2022-12-18T08:42:39;-5.60;99.90
10702;DHT22;5402;50.004;8.246;2022-12-18T08:45:25;-5.50;99.90
10702;DHT22;5402;50.004;8.246;2022-12-18T08:47:53;-5.40;99.90
10702;DHT22;5402;50.004;8.246;2022-12-18T08:50:20;-5.40;99.90
10702;DHT22;5402;50.004;8.246;2022-12-18T08:52:47;-5.20;99.90
10702;DHT22;5402;50.004;8.246;2022-12-18T08:55:14;-5.20;99.90
10702;DHT22;5402;50.004;8.246;2022-12-18T08:57:40;-5.20;99.90
10702;DHT22;5402;50.004;8.246;2022-12-18T09:00:11;-5.10;99.90
10702;DHT22;5402;50.004;8.246;2022-12-18T09:02:39;-5.40;99.90
10702;DHT22;5402;50.004;8.246;2022-12-18T09:05:07;-5.20;99.90
10702;DHT22;5402;50.004;8.246;2022-12-18T09:07:33;-5.10;99.90
10702;DHT22;5402;50.004;8.246;2022-12-18T09:10:00;-5.10;99.90
10702;DHT22;5402;50.004;8.246;2022-12-18T09:12:27;-5.00;99.90
10702;DHT22;5402;50.004;8.246;2022-12-18T09:14:56;-5.00;99.90
10702;DHT22;5402;50.004;8.246;2022-12-18T09:17:25;-4.90;99.90
10702;DHT22;5402;50.004;8.246;2022-12-18T09:19:54;-4.90;99.90
10702;DHT22;5402;50.004;8.246;2022-12-18T09:22:21;-4.90;99.90
10702;DHT22;5402;50.004;8.246;2022-12-18T09:24:49;-4.90;99.90
10702;DHT22;5402;50.004;8.246;2022-12-18T09:27:15;-5.00;99.90
10702;DHT22;5402;50.004;8.246;2022-12-18T09:29:42;-4.90;99.90
10702;DHT22;5402;50.004;8.246;2022-12-18T09:32:09;-4.90;99.90
10702;DHT22;5402;50.004;8.246;2022-12-18T09:34:36;-4.80;99.90
10702;DHT22;5402;50.004;8.246;2022-12-18T09:37:04;-4.80;99.90
10702;DHT22;5402;50.004;8.246;2022-12-18T09:39:32;-4.80;99.90
10702;DHT22;5402;50.004;8.246;2022-12-18T09:42:00;-4.70;99.90
10702;DHT22;5402;50.004;8.246;2022-12-18T09:44:30;-4.70;99.90
10702;DHT22;5402;50.004;8.246;2022-12-18T09:47:04;-4.60;99.90
10702;DHT22;5402;50.004;8.246;2022-12-18T09:49:35;-4.50;99.90
10702;DHT22;5402;50.004;8.246;2022-12-18T09:52:11;-4.30;99.90
10702;DHT22;5402;50.004;8.246;2022-12-18T09:54:40;-4.50;99.90
10702;DHT22;5402;50.004;8.246;2022-12-18T09:57:13;-4.40;99.90
10702;DHT22;5402;50.004;8.246;2022-12-18T09:59:42;-4.40;99.90
10702;DHT22;5402;50.004;8.246;2022-12-18T10:02:15;-4.30;99.90
10702;DHT22;5402;50.004;8.246;2022-12-18T10:04:58;-4.40;99.90
10702;DHT22;5402;50.004;8.246;2022-12-18T10:07:37;-4.30;99.90
10702;DHT22;5402;50.004;8.246;2022-12-18T10:10:16;-4.20;99.90
10702;DHT22;5402;50.004;8.246;2022-12-18T10:12:55;-4.20;99.90
10702;DHT22;5402;50.004;8.246;2022-12-18T10:15:26;-4.20;99.90
10702;DHT22;5402;50.004;8.246;2022-12-18T10:17:58;-4.10;99.90
10702;DHT22;5402;50.004;8.246;2022-12-18T10:20:34;-4.00;99.90
10702;DHT22;5402;50.004;8.246;2022-12-18T10:23:14;-3.90;99.90
10702;DHT22;5402;50.004;8.246;2022-12-18T10:25:53;-3.90;99.90
10702;DHT22;5402;50.004;8.246;2022-12-18T10:28:25;-3.80;99.90
10702;DHT22;5402;50.004;8.246;2022-12-18T10:30:56;-3.70;99.90
10702;DHT22;5402;50.004;8.246;2022-12-18T10:33:27;-3.80;99.90
10702;DHT22;5402;50.004;8.246;2022-12-18T10:35:55;-3.80;99.90
10702;DHT22;5402;50.004;8.246;2022-12-18T10:38:25;-3.70;99.90
10702;DHT22;5402;50.004;8.246;2022-12-18T10:40:56;-3.70;99.90
10702;DHT22;5402;50.004;8.246;2022-12-18T10:43:28;-3.70;99.90
10702;DHT22;5402;50.004;8.246;2022-12-18T10:46:17;-3.50;99.90
10702;DHT22;5402;50.004;8.246;2022-12-18T10:48:53;-3.70;99.90
10702;DHT22;5402;50.004;8.246;2022-12-18T10:51:23;-3.60;99.90
10702;DHT22;5402;50.004;8.246;2022-12-18T10:53:56;-3.60;99.90
10702;DHT22;5402;50.004;8.246;2022-12-18T10:56:28;-3.50;99.90
10702;DHT22;5402;50.004;8.246;2022-12-18T10:58:59;-3.50;99.90
10702;DHT22;5402;50.004;8.246;2022-12-18T11:01:28;-3.50;99.90
10702;DHT22;5402;50.004;8.246;2022-12-18T11:04:04;-3.30;99.90
10702;DHT22;5402;50.004;8.246;2022-12-18T11:06:34;-3.30;99.90
10702;DHT22;5402;50.004;8.246;2022-12-18T11:09:04;-3.30;99.90
10702;DHT22;5402;50.004;8.246;2022-12-18T11:11:32;-3.30;99.90
10702;DHT22;5402;50.004;8.246;2022-12-18T11:14:02;-3.20;99.90
10702;DHT22;5402;50.004;8.246;2022-12-18T11:16:32;-3.30;99.90
10702;DHT22;5402;50.004;8.246;2022-12-18T11:19:13;-3.20;99.90
10702;DHT22;5402;50.004;8.246;2022-12-18T11:21:44;-3.20;99.90
10702;DHT22;5402;50.004;8.246;2022-12-18T11:24:20;-3.20;99.90
10702;DHT22;5402;50.004;8.246;2022-12-18T11:26:50;-3.10;99.90
10702;DHT22;5402;50.004;8.246;2022-12-18T11:29:18;-2.50;99.90
10702;DHT22;5402;50.004;8.246;2022-12-18T11:31:49;-3.10;99.90
10702;DHT22;5402;50.004;8.246;2022-12-18T11:34:21;-3.10;99.90
10702;DHT22;5402;50.004;8.246;2022-12-18T11:36:49;-3.10;99.90
10702;DHT22;5402;50.004;8.246;2022-12-18T11:39:21;-3.00;99.90
10702;DHT22;5402;50.004;8.246;2022-12-18T11:41:54;-3.00;99.90
10702;DHT22;5402;50.004;8.246;2022-12-18T11:44:42;-3.10;99.90
10702;DHT22;5402;50.004;8.246;2022-12-18T11:47:13;-3.10;99.90
10702;DHT22;5402;50.004;8.246;2022-12-18T11:49:41;-3.00;99.90
10702;DHT22;5402;50.004;8.246;2022-12-18T11:52:15;-2.90;99.90
10702;DHT22;5402;50.004;8.246;2022-12-18T11:54:45;-3.00;99.90
10702;DHT22;5402;50.004;8.246;2022-12-18T11:57:22;-3.00;99.90
10702;DHT22;5402;50.004;8.246;2022-12-18T11:59:58;-3.00;99.90
10702;DHT22;5402;50.004;8.246;2022-12-18T12:02:42;-3.00;99.90
10702;DHT22;5402;50.004;8.246;2022-12-18T12:05:31;-2.90;99.90
10702;DHT22;5402;50.004;8.246;2022-12-18T12:08:13;-2.80;99.90
10702;DHT22;5402;50.004;8.246;2022-12-18T12:10:52;-2.90;99.90
10702;DHT22;5402;50.004;8.246;2022-12-18T12:13:38;-2.90;99.90
10702;DHT22;5402;50.004;8.246;2022-12-18T12:16:17;-3.00;99.90
10702;DHT22;5402;50.004;8.246;2022-12-18T12:18:57;-2.90;99.90
10702;DHT22;5402;50.004;8.246;2022-12-18T12:21:38;-3.00;99.90
10702;DHT22;5402;50.004;8.246;2022-12-18T12:24:20;-2.80;99.90
10702;DHT22;5402;50.004;8.246;2022-12-18T12:27:02;-2.80;99.90
10702;DHT22;5402;50.004;8.246;2022-12-18T12:29:43;-2.90;99.90
10702;DHT22;5402;50.004;8.246;2022-12-18T12:32:25;-2.80;99.90
10702;DHT22;5402;50.004;8.246;2022-12-18T12:35:08;-2.90;99.90
10702;DHT22;5402;50.004;8.246;2022-12-18T12:37:44;-2.80;99.90
10702;DHT22;5402;50.004;8.246;2022-12-18T12:40:18;-2.80;99.90
10702;DHT22;5402;50.004;8.246;2022-12-18T12:42:50;-2.40;99.90
10702;DHT22;5402;50.004;8.246;2022-12-18T12:45:40;-2.90;99.90
10702;DHT22;5402;50.004;8.246;2022-12-18T12:48:16;-2.90;99.90
10702;DHT22;5402;50.004;8.246;2022-12-18T12:50:44;-2.90;99.90
10702;DHT22;5402;50.004;8.246;2022-12-18T12:53:19;-3.00;99.90
10702;DHT22;5402;50.004;8.246;2022-12-18T12:55:47;-2.90;99.90
10702;DHT22;5402;50.004;8.246;2022-12-18T12:58:22;-2.90;99.90
10702;DHT22;5402;50.004;8.246;2022-12-18T13:00:56;-2.90;99.90
10702;DHT22;5402;50.004;8.246;2022-12-18T13:03:34;-2.90;99.90
10702;DHT22;5402;50.004;8.246;2022-12-18T13:06:07;-2.80;99.90
10702;DHT22;5402;50.004;8.246;2022-12-18T13:08:53;-2.90;99.90
10702;DHT22;5402;50.004;8.246;2022-12-18T13:11:31;-2.90;99.90
10702;DHT22;5402;50.004;8.246;2022-12-18T13:14:32;-2.90;99.90
10702;DHT22;5402;50.004;8.246;2022-12-18T13:17:16;-2.90;99.90
10702;DHT22;5402;50.004;8.246;2022-12-18T13:19:52;-2.90;99.90
10702;DHT22;5402;50.004;8.246;2022-12-18T13:22:21;-3.00;99.90
10702;DHT22;5402;50.004;8.246;2022-12-18T13:24:49;-3.60;99.90
10702;DHT22;5402;50.004;8.246;2022-12-18T13:27:52;-3.10;99.90
10702;DHT22;5402;50.004;8.246;2022-12-18T13:30:43;-2.60;99.90
10702;DHT22;5402;50.004;8.246;2022-12-18T13:36:37;-3.10;99.90
10702;DHT22;5402;50.004;8.246;2022-12-18T13:39:30;-2.70;99.90
10702;DHT22;5402;50.004;8.246;2022-12-18T13:42:39;-3.10;99.90
10702;DHT22;5402;50.004;8.246;2022-12-18T13:45:40;-3.10;99.90
10702;DHT22;5402;50.004;8.246;2022-12-18T13:48:22;-3.10;99.90
10702;DHT22;5402;50.004;8.246;2022-12-18T13:50:53;-3.10;99.90
10702;DHT22;5402;50.004;8.246;2022-12-18T13:53:23;-3.10;99.90
10702;DHT22;5402;50.004;8.246;2022-12-18T13:55:57;-2.80;99.90
10702;DHT22;5402;50.004;8.246;2022-12-18T13:58:24;-3.00;99.90
10702;DHT22;5402;50.004;8.246;2022-12-18T14:00:54;-3.00;99.90
10702;DHT22;5402;50.004;8.246;2022-12-18T14:03:25;-3.10;99.90
10702;DHT22;5402;50.004;8.246;2022-12-18T14:05:59;-3.10;99.90
10702;DHT22;5402;50.004;8.246;2022-12-18T14:08:36;-3.10;99.90
10702;DHT22;5402;50.004;8.246;2022-12-18T14:11:06;-3.20;99.90
10702;DHT22;5402;50.004;8.246;2022-12-18T14:13:40;-3.20;99.90
10702;DHT22;5402;50.004;8.246;2022-12-18T14:16:14;-3.10;99.90
10702;DHT22;5402;50.004;8.246;2022-12-18T14:18:45;-3.10;99.90
10702;DHT22;5402;50.004;8.246;2022-12-18T14:21:21;-3.10;99.90
10702;DHT22;5402;50.004;8.246;2022-12-18T14:24:04;-3.10;99.90
10702;DHT22;5402;50.004;8.246;2022-12-18T14:26:32;-3.10;99.90
10702;DHT22;5402;50.004;8.246;2022-12-18T14:29:01;-3.20;99.90
10702;DHT22;5402;50.004;8.246;2022-12-18T14:31:30;-2.50;99.90
10702;DHT22;5402;50.004;8.246;2022-12-18T14:34:08;-2.70;99.90
10702;DHT22;5402;50.004;8.246;2022-12-18T14:36:41;-2.90;99.90
10702;DHT22;5402;50.004;8.246;2022-12-18T14:39:17;-3.00;99.90
10702;DHT22;5402;50.004;8.246;2022-12-18T14:41:48;-3.20;99.90
10702;DHT22;5402;50.004;8.246;2022-12-18T14:44:18;-3.20;99.90
10702;DHT22;5402;50.004;8.246;2022-12-18T14:46:47;-3.50;99.90
10702;DHT22;5402;50.004;8.246;2022-12-18T14:49:30;-3.20;99.90
10702;DHT22;5402;50.004;8.246;2022-12-18T14:52:26;-3.20;99.90
10702;DHT22;5402;50.004;8.246;2022-12-18T14:54:47;-3.20;99.90
10702;DHT22;5402;50.004;8.246;2022-12-18T14:57:28;-3.20;99.90
10702;DHT22;5402;50.004;8.246;2022-12-18T15:00:26;-3.20;99.90
10702;DHT22;5402;50.004;8.246;2022-12-18T15:02:53;-3.20;99.90
10702;DHT22;5402;50.004;8.246;2022-12-18T15:05:26;-3.30;99.90
10702;DHT22;5402;50.004;8.246;2022-12-18T15:07:55;-3.30;99.90
10702;DHT22;5402;50.004;8.246;2022-12-18T15:10:24;-3.30;99.90
10702;DHT22;5402;50.004;8.246;2022-12-18T15:13:07;-3.30;99.90
10702;DHT22;5402;50.004;8.246;2022-12-18T15:15:51;-3.30;99.90
10702;DHT22;5402;50.004;8.246;2022-12-18T15:18:21;-3.30;99.90
10702;DHT22;5402;50.004;8.246;2022-12-18T15:20:53;-3.30;99.90
10702;DHT22;5402;50.004;8.246;2022-12-18T15:23:22;-3.30;99.90
10702;DHT22;5402;50.004;8.246;2022-12-18T15:25:56;-3.40;99.90
10702;DHT22;5402;50.004;8.246;2022-12-18T15:28:26;-3.50;99.90
10702;DHT22;5402;50.004;8.246;2022-12-18T15:31:02;-3.50;99.90
10702;DHT22;5402;50.004;8.246;2022-12-18T15:33:32;-3.10;99.90
10702;DHT22;5402;50.004;8.246;2022-12-18T15:36:02;-3.50;99.90
10702;DHT22;5402;50.004;8.246;2022-12-18T15:38:29;-3.50;99.90
10702;DHT22;5402;50.004;8.246;2022-12-18T15:40:57;-3.50;99.90
10702;DHT22;5402;50.004;8.246;2022-12-18T15:43:24;-3.50;99.90
10702;DHT22;5402;50.004;8.246;2022-12-18T15:46:05;-3.50;99.90
10702;DHT22;5402;50.004;8.246;2022-12-18T15:48:38;-3.50;99.90
10702;DHT22;5402;50.004;8.246;2022-12-18T15:51:14;-3.60;99.90
10702;DHT22;5402;50.004;8.246;2022-12-18T15:53:42;-3.50;99.90
10702;DHT22;5402;50.004;8.246;2022-12-18T15:56:10;-3.60;99.90
10702;DHT22;5402;50.004;8.246;2022-12-18T15:58:55;-3.40;99.90
10702;DHT22;5402;50.004;8.246;2022-12-18T16:01:23;-3.50;99.90
10702;DHT22;5402;50.004;8.246;2022-12-18T16:03:51;-3.50;99.90
10702;DHT22;5402;50.004;8.246;2022-12-18T16:06:20;-3.50;99.90
10702;DHT22;5402;50.004;8.246;2022-12-18T16:08:47;-3.50;99.90
10702;DHT22;5402;50.004;8.246;2022-12-18T16:11:21;-3.50;99.90
10702;DHT22;5402;50.004;8.246;2022-12-18T16:14:03;-3.40;99.90
10702;DHT22;5402;50.004;8.246;2022-12-18T16:16:30;-3.40;99.90
10702;DHT22;5402;50.004;8.246;2022-12-18T16:18:57;-3.40;99.90